Terminal Aerodrome Forecast
Issued by NWS

Home | Current Version | Previous Version | Text Only | Print | Product List | Glossary On
Versions: 1 2 3 4 5 6 7 8 9 10 11 12 13 14 15 16 17 18 19 20 21 22 23 24 25 26 27 28 29 30 31 32 33 34 35 36 37 38
000
FTUS44 KHGX 241131 CCA
TAFIAH
TAF COR
KIAH 241131Z 2412/2518 17009KT P6SM FEW022 SCT035 SCT250
     FM241400 17010G18KT P6SM SCT025 BKN040
     FM241700 17016G24KT P6SM VCSH BKN035
     FM242200 17018G26KT P6SM VCTS SCT025 BKN035CB
      TEMPO 2423/2503 TSRA
     FM250400 19012KT P6SM SCT015 BKN030
     FM251200 25006KT P6SM VCSH BKN025
     FM251500 31010KT P6SM FEW040=

USA.gov is the U.S. government's official web portal to all federal, state and local government web resources and services.